createdAt,value
2022-10-26T00:00:53.586Z,14.20
2022-10-26T00:03:22.927Z,14.20
2022-10-26T00:05:50.920Z,14.30
2022-10-26T00:08:18.884Z,14.40
2022-10-26T00:10:46.977Z,14.40
2022-10-26T00:13:15.058Z,14.40
2022-10-26T00:15:43.555Z,14.40
2022-10-26T00:18:11.540Z,14.50
2022-10-26T00:20:42.533Z,14.40
2022-10-26T00:23:10.864Z,14.50
2022-10-26T00:25:39.323Z,14.50
2022-10-26T00:28:07.326Z,14.50
2022-10-26T00:30:35.306Z,14.40
2022-10-26T00:33:03.254Z,14.20
2022-10-26T00:35:45.109Z,14.10
2022-10-26T00:38:15.488Z,14.00
2022-10-26T00:40:44.451Z,13.80
2022-10-26T00:43:17.974Z,13.70
2022-10-26T00:45:46.631Z,13.70
2022-10-26T00:48:24.125Z,13.90
2022-10-26T00:50:55.320Z,14.00
2022-10-26T00:53:24.749Z,14.10
2022-10-26T00:55:55.000Z,14.10
2022-10-26T00:58:24.049Z,14.00
2022-10-26T01:00:52.635Z,14.10
2022-10-26T01:03:21.383Z,14.10
2022-10-26T01:05:50.982Z,14.10
2022-10-26T01:08:20.059Z,14.10
2022-10-26T01:10:49.961Z,14.20
2022-10-26T01:13:18.958Z,14.20
2022-10-26T01:15:56.486Z,14.30
2022-10-26T01:18:34.589Z,14.30
2022-10-26T01:21:19.061Z,14.20
2022-10-26T01:24:10.497Z,14.30
2022-10-26T01:26:58.598Z,14.30
2022-10-26T01:29:55.684Z,14.30
2022-10-26T01:32:31.147Z,14.30
2022-10-26T01:35:07.752Z,14.40
2022-10-26T01:37:40.255Z,14.30
2022-10-26T01:40:11.945Z,14.30
2022-10-26T01:42:43.461Z,14.20
2022-10-26T01:45:14.373Z,14.10
2022-10-26T01:47:45.893Z,14.00
2022-10-26T01:50:14.066Z,14.00
2022-10-26T01:52:42.107Z,14.10
2022-10-26T01:55:42.073Z,14.10
2022-10-26T01:58:23.312Z,14.10
2022-10-26T02:00:59.457Z,14.10
2022-10-26T02:03:35.082Z,14.10
2022-10-26T02:06:12.966Z,14.00
2022-10-26T02:08:56.041Z,14.10
2022-10-26T02:11:33.866Z,14.20
2022-10-26T02:16:53.473Z,14.30
2022-10-26T02:19:31.499Z,14.30
2022-10-26T02:22:08.225Z,14.30
2022-10-26T02:24:37.535Z,14.30
2022-10-26T02:27:08.875Z,14.30
2022-10-26T02:29:39.217Z,14.10
2022-10-26T02:32:09.364Z,14.00
2022-10-26T02:34:40.942Z,14.00
2022-10-26T02:37:10.158Z,14.10
2022-10-26T02:39:42.074Z,14.00
2022-10-26T02:42:11.607Z,14.00
2022-10-26T02:44:45.181Z,13.90
2022-10-26T02:47:13.557Z,13.90
2022-10-26T02:49:43.662Z,13.80
2022-10-26T02:52:17.410Z,13.80
2022-10-26T02:54:53.880Z,13.60
2022-10-26T02:57:26.134Z,13.60
2022-10-26T02:59:55.874Z,13.60
2022-10-26T03:02:24.628Z,13.60
2022-10-26T03:04:55.328Z,13.60
2022-10-26T03:07:24.456Z,13.60
2022-10-26T03:09:52.878Z,13.70
2022-10-26T03:12:21.087Z,13.80
2022-10-26T03:14:49.072Z,13.90
2022-10-26T03:17:17.034Z,13.90
2022-10-26T03:19:47.031Z,13.80
2022-10-26T03:22:16.321Z,13.80
2022-10-26T03:24:44.336Z,13.70
2022-10-26T03:27:12.349Z,13.60
2022-10-26T03:29:40.285Z,13.50
2022-10-26T03:32:08.740Z,13.50
2022-10-26T03:34:36.717Z,13.50
2022-10-26T03:37:04.720Z,13.50
2022-10-26T03:39:34.023Z,13.50
2022-10-26T03:42:02.121Z,13.70
2022-10-26T03:44:30.124Z,13.70
2022-10-26T03:46:58.062Z,13.90
2022-10-26T03:49:25.977Z,14.00
2022-10-26T03:51:53.934Z,14.00
2022-10-26T03:54:21.909Z,14.00
2022-10-26T03:56:55.108Z,14.00
2022-10-26T03:59:23.376Z,14.00
2022-10-26T04:01:54.064Z,13.80
2022-10-26T04:04:25.039Z,13.80
2022-10-26T04:06:53.128Z,13.70
2022-10-26T04:09:21.111Z,13.70
2022-10-26T04:11:49.172Z,13.60
2022-10-26T04:14:18.469Z,13.50
2022-10-26T04:16:46.472Z,13.50
2022-10-26T04:19:14.484Z,13.50
2022-10-26T04:21:42.409Z,13.50
2022-10-26T04:24:11.555Z,13.50
2022-10-26T04:26:39.555Z,13.50
2022-10-26T04:29:16.659Z,13.40
2022-10-26T04:31:44.680Z,13.40
2022-10-26T04:34:13.058Z,13.40
2022-10-26T04:36:41.043Z,13.40
2022-10-26T04:39:09.066Z,13.60
2022-10-26T04:41:37.088Z,13.60
2022-10-26T04:44:05.059Z,13.70
2022-10-26T04:46:34.354Z,13.70
2022-10-26T04:49:02.309Z,13.70
2022-10-26T04:51:30.313Z,13.70
2022-10-26T04:53:58.329Z,13.70
2022-10-26T04:56:26.286Z,13.70
2022-10-26T04:58:55.217Z,13.70
2022-10-26T05:01:23.520Z,13.70
2022-10-26T05:03:53.713Z,13.70
2022-10-26T05:06:21.713Z,13.70
2022-10-26T05:08:49.718Z,13.70
2022-10-26T05:11:17.886Z,13.70
2022-10-26T05:13:47.843Z,13.70
2022-10-26T05:16:16.240Z,13.60
2022-10-26T05:18:44.183Z,13.60
2022-10-26T05:21:19.403Z,13.50
2022-10-26T05:23:55.246Z,13.40
2022-10-26T05:26:24.857Z,13.50
2022-10-26T05:28:53.338Z,13.60
2022-10-26T05:31:21.497Z,13.60
2022-10-26T05:33:50.650Z,13.60
2022-10-26T05:36:20.545Z,13.60
2022-10-26T05:38:48.770Z,13.60
2022-10-26T05:41:16.706Z,13.70
2022-10-26T05:43:44.735Z,13.60
2022-10-26T05:46:12.687Z,13.60
2022-10-26T05:48:40.697Z,13.60
2022-10-26T05:51:09.002Z,13.50
2022-10-26T05:53:38.335Z,13.60
2022-10-26T05:56:19.122Z,13.70
2022-10-26T05:58:47.795Z,13.70
2022-10-26T06:01:27.059Z,13.70
2022-10-26T06:04:06.417Z,13.40
2022-10-26T06:06:40.557Z,13.20
2022-10-26T06:09:11.961Z,13.30
2022-10-26T06:11:40.789Z,13.40
2022-10-26T06:14:10.767Z,13.50
2022-10-26T06:16:47.806Z,13.50
2022-10-26T06:19:28.675Z,13.60
2022-10-26T06:22:11.727Z,13.70
2022-10-26T06:24:49.195Z,13.70
2022-10-26T06:27:27.735Z,13.70
2022-10-26T06:30:04.750Z,13.60
2022-10-26T06:32:32.770Z,13.40
2022-10-26T06:35:14.252Z,13.40
2022-10-26T06:37:45.407Z,13.40
2022-10-26T06:40:17.753Z,13.60
2022-10-26T06:42:46.349Z,13.70
2022-10-26T06:45:16.386Z,13.70
2022-10-26T06:47:54.164Z,13.80
2022-10-26T06:50:32.599Z,13.80
2022-10-26T06:53:07.741Z,13.80
2022-10-26T06:55:43.027Z,13.90
2022-10-26T06:58:14.961Z,13.90
2022-10-26T07:00:43.820Z,13.90
2022-10-26T07:03:11.897Z,13.90
2022-10-26T07:05:39.892Z,14.00
2022-10-26T07:08:08.137Z,14.00
2022-10-26T07:10:38.913Z,14.20
2022-10-26T07:13:08.865Z,14.10
2022-10-26T07:15:37.913Z,14.20
2022-10-26T07:18:07.660Z,14.30
2022-10-26T07:20:38.243Z,14.10
2022-10-26T07:23:08.040Z,14.10
2022-10-26T07:25:39.012Z,14.10
2022-10-26T07:28:10.508Z,14.00
2022-10-26T07:30:40.361Z,14.00
2022-10-26T07:33:10.279Z,14.00
2022-10-26T07:35:38.584Z,14.10
2022-10-26T07:38:06.808Z,14.20
2022-10-26T07:40:35.439Z,14.20
2022-10-26T07:43:03.529Z,14.20
2022-10-26T07:45:32.866Z,14.20
2022-10-26T07:48:00.817Z,14.20
2022-10-26T07:50:29.280Z,14.10
2022-10-26T07:52:59.103Z,14.10
2022-10-26T07:55:28.000Z,14.10
2022-10-26T07:57:56.761Z,14.00
2022-10-26T08:00:25.719Z,14.00
2022-10-26T08:02:55.508Z,14.00
2022-10-26T08:05:24.171Z,14.00
2022-10-26T08:07:52.491Z,14.00
2022-10-26T08:10:20.650Z,14.10
2022-10-26T08:12:48.595Z,14.10
2022-10-26T08:15:16.605Z,14.20
2022-10-26T08:17:44.547Z,14.30
2022-10-26T08:20:14.194Z,14.40
2022-10-26T08:22:42.152Z,14.40
2022-10-26T08:25:10.411Z,14.50
2022-10-26T08:27:38.453Z,14.50
2022-10-26T08:30:07.293Z,14.60
2022-10-26T08:32:35.335Z,14.60
2022-10-26T08:35:03.587Z,14.70
2022-10-26T08:37:32.973Z,14.70
2022-10-26T08:40:03.218Z,14.70
2022-10-26T08:42:37.735Z,14.80
2022-10-26T08:45:12.140Z,14.80
2022-10-26T08:47:44.994Z,14.80
2022-10-26T08:50:20.320Z,14.90
2022-10-26T08:52:54.271Z,14.90
2022-10-26T08:55:27.384Z,15.00
2022-10-26T08:57:56.273Z,15.00
2022-10-26T09:00:26.516Z,15.00
2022-10-26T09:02:55.211Z,15.00
2022-10-26T09:05:27.823Z,14.90
2022-10-26T09:08:02.750Z,14.90
2022-10-26T09:10:45.204Z,14.90
2022-10-26T09:13:24.751Z,14.90
2022-10-26T09:16:01.478Z,15.00
2022-10-26T09:21:33.246Z,15.00
2022-10-26T09:24:13.071Z,15.00
2022-10-26T09:26:54.590Z,15.00
2022-10-26T09:29:27.724Z,15.00
2022-10-26T09:31:57.289Z,15.00
2022-10-26T09:34:31.742Z,15.00
2022-10-26T09:36:59.945Z,15.10
2022-10-26T09:39:40.158Z,15.10
2022-10-26T09:42:20.181Z,15.20
2022-10-26T09:44:54.943Z,15.30
2022-10-26T09:47:36.077Z,15.30
2022-10-26T09:50:18.189Z,15.40
2022-10-26T09:52:46.519Z,15.40
2022-10-26T09:55:18.176Z,15.40
2022-10-26T09:57:51.116Z,15.50
2022-10-26T10:00:20.989Z,15.60
2022-10-26T10:02:53.638Z,15.60
2022-10-26T10:05:45.821Z,15.70
2022-10-26T10:08:21.914Z,15.70
2022-10-26T10:11:07.777Z,15.80
2022-10-26T10:13:43.957Z,15.90
2022-10-26T10:16:23.314Z,16.00
2022-10-26T10:18:56.054Z,16.00
2022-10-26T10:21:35.867Z,16.20
2022-10-26T10:24:04.528Z,16.20
2022-10-26T10:26:35.391Z,16.30
2022-10-26T10:29:03.894Z,16.30
2022-10-26T10:31:34.235Z,16.40
2022-10-26T10:34:19.324Z,16.40
2022-10-26T10:36:49.437Z,16.40
2022-10-26T10:39:35.870Z,16.40
2022-10-26T10:42:08.822Z,16.50
2022-10-26T10:44:36.961Z,16.60
2022-10-26T10:47:07.068Z,16.60
2022-10-26T10:49:35.358Z,16.70
2022-10-26T10:52:03.493Z,16.80
2022-10-26T10:54:33.988Z,16.80
2022-10-26T10:57:15.427Z,16.80
2022-10-26T10:59:55.216Z,16.80
2022-10-26T11:02:54.620Z,16.90
2022-10-26T11:05:30.418Z,16.90
2022-10-26T11:08:04.767Z,16.80
2022-10-26T11:10:38.014Z,16.90
2022-10-26T11:13:15.859Z,16.90
2022-10-26T11:15:45.549Z,17.00
2022-10-26T11:18:18.049Z,17.10
2022-10-26T11:20:50.673Z,17.20
2022-10-26T11:23:24.545Z,17.30
2022-10-26T11:25:59.124Z,17.30
2022-10-26T11:28:38.512Z,17.40
2022-10-26T11:31:13.075Z,17.50
2022-10-26T11:33:45.999Z,17.50
2022-10-26T11:36:21.145Z,17.50
2022-10-26T11:38:57.428Z,17.50
2022-10-26T11:41:30.597Z,17.50
2022-10-26T11:44:06.999Z,17.50
2022-10-26T11:46:39.145Z,17.50
2022-10-26T11:49:17.526Z,17.50
2022-10-26T11:51:51.845Z,17.50
2022-10-26T11:54:25.669Z,17.50
2022-10-26T11:56:56.533Z,17.50
2022-10-26T11:59:32.283Z,17.50
2022-10-26T12:02:06.596Z,17.40
2022-10-26T12:04:38.417Z,17.40
2022-10-26T12:07:14.440Z,17.40
2022-10-26T12:09:45.784Z,17.40
2022-10-26T12:12:22.925Z,17.40
2022-10-26T12:14:57.784Z,17.40
2022-10-26T12:17:32.042Z,17.40
2022-10-26T12:20:06.661Z,17.40
2022-10-26T12:22:39.823Z,17.30
2022-10-26T12:25:22.496Z,17.30
2022-10-26T12:27:53.531Z,17.30
2022-10-26T12:30:29.071Z,17.30
2022-10-26T12:32:58.611Z,17.40
2022-10-26T12:35:41.319Z,17.40
2022-10-26T12:38:49.570Z,17.40
2022-10-26T12:41:26.526Z,17.50
2022-10-26T12:44:24.877Z,17.50
2022-10-26T12:46:54.141Z,17.50
2022-10-26T12:49:58.231Z,17.60
2022-10-26T12:52:44.940Z,17.60
2022-10-26T12:55:31.844Z,17.70
2022-10-26T12:58:29.979Z,17.60
2022-10-26T13:01:25.676Z,17.60
2022-10-26T13:04:03.560Z,17.60
2022-10-26T13:06:47.989Z,17.60
2022-10-26T13:09:20.120Z,17.70
2022-10-26T13:11:51.336Z,17.70
2022-10-26T13:14:26.457Z,17.70
2022-10-26T13:16:54.796Z,17.70
2022-10-26T13:19:32.248Z,17.70
2022-10-26T13:22:01.328Z,17.70
2022-10-26T13:24:32.297Z,17.80
2022-10-26T13:27:23.275Z,17.80
2022-10-26T13:30:20.752Z,17.80
2022-10-26T13:32:54.731Z,17.80
2022-10-26T13:35:26.025Z,17.80
2022-10-26T13:37:56.396Z,17.90
2022-10-26T13:40:27.110Z,17.90
2022-10-26T13:42:57.701Z,17.90
2022-10-26T13:45:28.768Z,17.90
2022-10-26T13:48:00.136Z,17.90
2022-10-26T13:50:38.996Z,17.90
2022-10-26T13:53:11.239Z,17.90
2022-10-26T13:55:51.534Z,17.90
2022-10-26T13:58:24.057Z,17.90
2022-10-26T14:01:04.800Z,18.00
2022-10-26T14:03:32.846Z,18.00
2022-10-26T14:06:05.195Z,18.00
2022-10-26T14:08:33.289Z,18.00
2022-10-26T14:11:01.647Z,18.00
2022-10-26T14:13:31.745Z,18.00
2022-10-26T14:16:00.360Z,18.00
2022-10-26T14:18:30.457Z,18.00
2022-10-26T14:21:04.395Z,18.10
2022-10-26T14:23:36.042Z,18.10
2022-10-26T14:26:04.627Z,18.10
2022-10-26T14:28:34.111Z,18.10
2022-10-26T14:31:18.163Z,18.10
2022-10-26T14:33:48.373Z,18.00
2022-10-26T14:36:20.036Z,17.90
2022-10-26T14:38:50.856Z,17.90
2022-10-26T14:41:19.897Z,17.80
2022-10-26T14:43:48.275Z,17.80
2022-10-26T14:46:18.422Z,17.80
2022-10-26T14:48:54.354Z,17.70
2022-10-26T14:51:28.341Z,17.70
2022-10-26T14:53:59.259Z,17.70
2022-10-26T14:56:32.788Z,17.60
2022-10-26T14:59:00.881Z,17.60
2022-10-26T15:01:35.824Z,17.60
2022-10-26T15:04:07.119Z,17.50
2022-10-26T15:06:44.411Z,17.50
2022-10-26T15:09:33.788Z,17.40
2022-10-26T15:12:03.969Z,17.40
2022-10-26T15:14:32.452Z,17.30
2022-10-26T15:17:00.991Z,17.30
2022-10-26T15:19:29.667Z,17.20
2022-10-26T15:21:59.540Z,17.10
2022-10-26T15:24:39.377Z,17.00
2022-10-26T15:27:15.893Z,17.00
2022-10-26T15:29:45.759Z,17.00
2022-10-26T15:32:31.660Z,16.90
2022-10-26T15:35:32.545Z,17.00
2022-10-26T15:38:02.084Z,16.90
2022-10-26T15:40:32.061Z,17.00
2022-10-26T15:43:01.734Z,17.00
2022-10-26T15:45:33.205Z,16.90
2022-10-26T15:48:16.708Z,16.90
2022-10-26T15:50:44.832Z,16.90
2022-10-26T15:53:20.277Z,16.80
2022-10-26T15:55:49.185Z,16.80
2022-10-26T15:58:17.858Z,16.70
2022-10-26T16:00:45.901Z,16.70
2022-10-26T16:03:16.994Z,16.70
2022-10-26T16:05:44.969Z,16.60
2022-10-26T16:08:18.222Z,16.60
2022-10-26T16:10:48.074Z,16.50
2022-10-26T16:13:16.483Z,16.50
2022-10-26T16:15:44.923Z,16.40
2022-10-26T16:18:12.946Z,16.40
2022-10-26T16:20:41.258Z,16.30
2022-10-26T16:23:09.246Z,16.30
2022-10-26T16:25:42.993Z,16.20
2022-10-26T16:28:13.142Z,16.20
2022-10-26T16:33:14.155Z,16.10
2022-10-26T16:35:42.060Z,16.10
2022-10-26T16:38:10.083Z,16.10
2022-10-26T16:40:42.573Z,16.00
2022-10-26T16:43:10.840Z,16.00
2022-10-26T16:45:40.946Z,16.00
2022-10-26T16:48:14.462Z,15.90
2022-10-26T16:50:42.437Z,15.90
2022-10-26T16:53:10.505Z,15.90
2022-10-26T16:55:39.817Z,15.80
2022-10-26T16:58:07.834Z,15.80
2022-10-26T17:00:36.760Z,15.70
2022-10-26T17:03:05.060Z,15.70
2022-10-26T17:05:33.051Z,15.60
2022-10-26T17:08:01.020Z,15.60
2022-10-26T17:10:29.023Z,15.60
2022-10-26T17:12:58.521Z,15.60
2022-10-26T17:15:29.103Z,15.50
2022-10-26T17:17:57.180Z,15.60
2022-10-26T17:20:25.313Z,15.60
2022-10-26T17:22:53.332Z,15.60
2022-10-26T17:25:21.413Z,15.50
2022-10-26T17:27:49.338Z,15.50
2022-10-26T17:30:18.761Z,15.40
2022-10-26T17:32:49.253Z,15.40
2022-10-26T17:35:18.967Z,15.40
2022-10-26T17:37:47.148Z,15.30
2022-10-26T17:40:15.131Z,15.20
2022-10-26T17:42:43.180Z,15.20
2022-10-26T17:45:12.009Z,15.20
2022-10-26T17:47:41.405Z,15.20
2022-10-26T17:50:10.037Z,15.20
2022-10-26T17:52:38.319Z,15.20
2022-10-26T17:55:07.030Z,15.20
2022-10-26T17:57:35.005Z,15.10
2022-10-26T18:00:03.950Z,15.10
2022-10-26T18:02:32.052Z,15.10
2022-10-26T18:05:03.874Z,15.00
2022-10-26T18:07:34.988Z,15.00
2022-10-26T18:10:13.843Z,15.00
2022-10-26T18:12:51.218Z,15.00
2022-10-26T18:15:19.432Z,15.00
2022-10-26T18:17:52.419Z,14.90
2022-10-26T18:20:22.924Z,14.90
2022-10-26T18:22:51.119Z,14.90
2022-10-26T18:25:19.281Z,14.90
2022-10-26T18:27:47.266Z,14.90
2022-10-26T18:30:15.630Z,14.90
2022-10-26T18:32:43.709Z,14.90
2022-10-26T18:35:11.897Z,14.90
2022-10-26T18:37:41.312Z,14.90
2022-10-26T18:40:10.395Z,14.80
2022-10-26T18:42:38.608Z,14.70
2022-10-26T18:45:07.421Z,14.70
2022-10-26T18:47:35.439Z,14.70
2022-10-26T18:50:03.717Z,14.70
2022-10-26T18:52:31.882Z,14.60
2022-10-26T18:55:01.205Z,14.60
2022-10-26T18:57:29.598Z,14.60
2022-10-26T18:59:57.565Z,14.60
2022-10-26T19:02:25.549Z,14.60
2022-10-26T19:04:54.157Z,14.50
2022-10-26T19:07:22.262Z,14.50
2022-10-26T19:09:50.264Z,14.50
2022-10-26T19:12:19.721Z,14.60
2022-10-26T19:14:47.732Z,14.50
2022-10-26T19:17:15.707Z,14.50
2022-10-26T19:19:43.949Z,14.50
2022-10-26T19:22:11.973Z,14.40
2022-10-26T19:24:39.963Z,14.50
2022-10-26T19:27:07.965Z,14.50
2022-10-26T19:29:37.618Z,14.50
2022-10-26T19:32:06.182Z,14.30
2022-10-26T19:34:34.233Z,14.40
2022-10-26T19:37:02.158Z,14.50
2022-10-26T19:39:30.144Z,14.50
2022-10-26T19:41:58.367Z,14.40
2022-10-26T19:44:26.411Z,14.50
2022-10-26T19:46:55.775Z,14.40
2022-10-26T19:49:24.064Z,14.10
2022-10-26T19:51:52.085Z,13.80
2022-10-26T19:54:20.085Z,13.60
2022-10-26T19:56:48.049Z,13.60
2022-10-26T19:59:16.125Z,13.60
2022-10-26T20:01:44.113Z,13.80
2022-10-26T20:04:13.475Z,13.80
2022-10-26T20:06:41.426Z,13.90
2022-10-26T20:09:09.488Z,13.80
2022-10-26T20:11:39.742Z,13.70
2022-10-26T20:14:08.304Z,13.70
2022-10-26T20:16:36.287Z,13.60
2022-10-26T20:19:04.288Z,13.50
2022-10-26T20:21:33.596Z,13.50
2022-10-26T20:24:02.009Z,13.40
2022-10-26T20:26:30.987Z,13.40
2022-10-26T20:28:58.929Z,13.40
2022-10-26T20:31:30.980Z,13.60
2022-10-26T20:33:59.227Z,13.60
2022-10-26T20:36:27.427Z,13.80
2022-10-26T20:38:57.397Z,13.90
2022-10-26T20:41:25.668Z,14.00
2022-10-26T20:43:57.190Z,14.00
2022-10-26T20:46:27.700Z,14.10
2022-10-26T20:48:56.596Z,13.90
2022-10-26T20:51:40.055Z,13.70
2022-10-26T20:54:20.302Z,13.50
2022-10-26T20:56:50.257Z,13.40
2022-10-26T20:59:23.415Z,13.30
2022-10-26T21:01:51.574Z,13.30
2022-10-26T21:04:19.665Z,13.30
2022-10-26T21:06:47.600Z,13.40
2022-10-26T21:09:16.912Z,13.40
2022-10-26T21:11:45.469Z,13.60
2022-10-26T21:14:13.518Z,13.70
2022-10-26T21:16:41.477Z,13.80
2022-10-26T21:19:09.587Z,13.80
2022-10-26T21:21:37.725Z,13.80
2022-10-26T21:24:05.986Z,13.90
2022-10-26T21:26:35.304Z,13.90
2022-10-26T21:29:03.512Z,13.70
2022-10-26T21:31:31.560Z,13.50
2022-10-26T21:33:59.544Z,13.50
2022-10-26T21:36:27.569Z,13.40
2022-10-26T21:38:55.684Z,13.50
2022-10-26T21:44:03.392Z,13.70
2022-10-26T21:46:38.719Z,13.80
2022-10-26T21:49:06.999Z,13.80
2022-10-26T21:51:38.045Z,13.80
2022-10-26T21:54:06.237Z,13.70
2022-10-26T21:56:34.164Z,13.50
2022-10-26T21:59:03.465Z,13.30
2022-10-26T22:01:31.660Z,13.30
2022-10-26T22:03:59.790Z,13.10
2022-10-26T22:06:29.954Z,13.10
2022-10-26T22:08:57.917Z,13.00
2022-10-26T22:11:26.221Z,13.00
2022-10-26T22:13:54.847Z,13.10
2022-10-26T22:16:25.907Z,13.20
2022-10-26T22:18:55.473Z,13.20
2022-10-26T22:21:25.504Z,13.40
2022-10-26T22:23:53.773Z,13.30
2022-10-26T22:26:23.637Z,13.30
2022-10-26T22:28:53.869Z,13.40
2022-10-26T22:31:25.012Z,13.20
2022-10-26T22:33:53.783Z,13.00
2022-10-26T22:36:22.279Z,12.90
2022-10-26T22:38:50.915Z,12.90
2022-10-26T22:41:20.104Z,12.80
2022-10-26T22:43:48.181Z,12.80
2022-10-26T22:46:20.198Z,12.90
2022-10-26T22:48:53.695Z,13.00
2022-10-26T22:51:23.520Z,13.10
2022-10-26T22:53:53.517Z,13.20
2022-10-26T22:56:23.132Z,13.10
2022-10-26T22:58:52.022Z,13.10
2022-10-26T23:01:22.550Z,13.20
2022-10-26T23:03:53.105Z,13.30
2022-10-26T23:06:21.419Z,13.30
2022-10-26T23:08:49.485Z,13.20
2022-10-26T23:11:19.812Z,12.90
2022-10-26T23:13:48.425Z,12.80
2022-10-26T23:16:18.976Z,12.70
2022-10-26T23:18:47.298Z,12.60
2022-10-26T23:21:17.629Z,12.70
2022-10-26T23:23:45.725Z,12.80
2022-10-26T23:26:15.815Z,13.00
2022-10-26T23:28:44.676Z,13.10
2022-10-26T23:31:16.375Z,13.10
2022-10-26T23:33:46.359Z,13.10
2022-10-26T23:36:14.331Z,13.20
2022-10-26T23:38:43.668Z,13.20
2022-10-26T23:41:12.972Z,13.10
2022-10-26T23:43:41.536Z,13.00
2022-10-26T23:46:09.744Z,13.10
2022-10-26T23:48:37.880Z,13.10
2022-10-26T23:51:06.025Z,13.20
2022-10-26T23:53:34.212Z,13.10
2022-10-26T23:56:03.518Z,12.90
2022-10-26T23:58:31.926Z,12.50
